Cranbury, New Jersey
Current Conditions -  °F | °C
As of 12:53 PM on Tuesday 21 Oct 2014 (Local Time) from KTTN Reporting Station
Clear Clear  
Wind Chill: 65°   Ceiling: Unl
Heat Index: 65°   Visibility: 10mi
Dew Point: 49°   Wind: 3mph
Humidity: 56%   Direction: 130°SE
Pressure: 29.84"   Gusts: NA
Location:  40.32°N, 74.51°W
Report Text: KTTN 211653Z 13003KT 10SM CLR 18/09 A2984 RMK AO2 SLP098 T01830094
Loading
Personal Weather Stations






























Interactive Weather Map
Tropical Storm Tracking
New forecast layout! Learn more

10-Day Weather Forecast

Advertisements
Track Severe Weather on mobile